32°F Temp
32°F Dewpoint
100% Humidity
Temperature
7 MPH
11 KM/H
6 KTS
350°
Due North

Wind Speed
Light Rain
Showers
Pressure 1019.32 (hPa) - 30.1 (in)
Visibility 9.9 (mi) - 16.0 (km)

Current Conditions
KCBK
Location 5(mi)
Metar :KCBK 161455Z AUTO 35006KT 10SM -RA BKN005 OVC010 00/00 A3010 RMK AO2 T00031003
Fri 16th April 08:55 am

Airport
  Metar Aviation API Data Provided by https://www.checkwx.com/ PHP scripts by weather34.com ©2021